Time;durP1;ratioP1;P1;durP2;ratioP2;P2;SDS_P1;SDS_P2;PMS_P1;PMS_P2;Temp;Humidity;BMP_temperature;BMP_pressure;BME280_temperature;BME280_humidity;BME280_pressure;Samples;Min_cycle;Max_cycle;Signal;HPM_P1;HPM_P2
2023/04/06 00:00:08;;;;;;;4.13;3.83;;;22.10;46.30;;;;;;5030132;28;20585;-79
2023/04/06 00:02:38;;;;;;;3.67;3.40;;;22.00;46.30;;;;;;5031400;28;20434;-79
2023/04/06 00:05:07;;;;;;;4.00;3.70;;;22.00;46.30;;;;;;5029696;28;20455;-76
2023/04/06 00:07:35;;;;;;;3.37;3.13;;;22.00;46.40;;;;;;5026959;28;20494;-75
2023/04/06 00:10:05;;;;;;;3.53;3.30;;;22.00;46.40;;;;;;5011365;28;20427;-79
2023/04/06 00:12:33;;;;;;;5.53;3.40;;;22.00;46.40;;;;;;5011347;28;20532;-78
2023/04/06 00:15:02;;;;;;;3.90;3.60;;;22.00;46.40;;;;;;5010181;28;20456;-76
2023/04/06 00:17:32;;;;;;;3.30;3.10;;;22.00;46.40;;;;;;5013817;28;20527;-76
2023/04/06 00:20:00;;;;;;;3.67;3.47;;;22.00;46.40;;;;;;5024094;28;20476;-76
2023/04/06 00:22:29;;;;;;;4.00;3.70;;;22.00;46.40;;;;;;5017157;28;20552;-82
2023/04/06 00:24:57;;;;;;;4.00;3.70;;;22.00;46.30;;;;;;5030656;28;20958;-76
2023/04/06 00:27:25;;;;;;;3.80;3.60;;;22.00;46.30;;;;;;5030695;28;20450;-77
2023/04/06 00:29:54;;;;;;;3.67;3.47;;;22.00;46.30;;;;;;5012779;28;20441;-80
2023/04/06 00:32:22;;;;;;;3.77;3.57;;;22.00;46.30;;;;;;5035072;28;20454;-80
2023/04/06 00:34:52;;;;;;;3.63;3.43;;;22.00;46.40;;;;;;5033254;28;20804;-76
2023/04/06 00:37:20;;;;;;;3.90;3.60;;;22.00;46.40;;;;;;5016464;28;20466;-76
2023/04/06 00:39:51;;;;;;;4.00;3.80;;;22.00;46.40;;;;;;5030633;28;20512;-76
2023/04/06 00:42:25;;;;;;;3.53;3.33;;;22.00;46.40;;;;;;5034214;28;20546;-77
2023/04/06 00:44:54;;;;;;;3.57;3.37;;;22.00;46.40;;;;;;5030674;28;20468;-76
2023/04/06 00:47:22;;;;;;;4.20;3.90;;;22.00;46.40;;;;;;5033534;28;20473;-78
2023/04/06 00:49:52;;;;;;;3.97;3.67;;;21.90;46.40;;;;;;5014307;28;20442;-78
2023/04/06 00:52:21;;;;;;;4.00;3.70;;;21.90;46.30;;;;;;5020754;28;20961;-76
2023/04/06 00:54:50;;;;;;;3.87;3.67;;;21.90;46.30;;;;;;5015847;28;20490;-76
2023/04/06 00:57:21;;;;;;;3.00;2.80;;;21.90;46.40;;;;;;5016354;28;20456;-76
2023/04/06 00:59:54;;;;;;;4.40;4.00;;;21.90;46.40;;;;;;5015677;28;20579;-76
2023/04/06 01:02:24;;;;;;;3.70;3.40;;;21.90;46.40;;;;;;5016832;28;20465;-76
2023/04/06 01:04:55;;;;;;;4.27;3.97;;;21.90;46.40;;;;;;5014747;28;20530;-79
2023/04/06 01:07:33;;;;;;;4.40;4.10;;;21.90;46.40;;;;;;5014630;28;20450;-76
2023/04/06 01:10:12;;;;;;;4.00;3.70;;;21.90;46.40;;;;;;4996283;28;20537;-76
2023/04/06 01:12:40;;;;;;;4.20;3.90;;;21.90;46.40;;;;;;4996403;28;20451;-76
2023/04/06 01:15:18;;;;;;;3.37;3.17;;;21.90;46.40;;;;;;4996003;28;20455;-77
2023/04/06 01:17:51;;;;;;;4.20;3.80;;;21.80;46.40;;;;;;4999937;28;20461;-79
2023/04/06 01:20:21;;;;;;;4.17;3.87;;;21.80;46.40;;;;;;5015568;28;20477;-76
2023/04/06 01:22:51;;;;;;;3.70;3.40;;;21.80;46.40;;;;;;5016115;28;20475;-77
2023/04/06 01:25:21;;;;;;;3.60;3.30;;;21.80;46.40;;;;;;5015667;28;20480;-77
2023/04/06 01:28:00;;;;;;;4.07;3.77;;;21.80;46.40;;;;;;5015535;28;21016;-77
2023/04/06 01:30:49;;;;;;;3.67;3.47;;;21.80;46.40;;;;;;5019775;28;20444;-76
2023/04/06 01:33:33;;;;;;;4.57;4.17;;;21.80;46.40;;;;;;5015322;28;20505;-76
2023/04/06 01:36:06;;;;;;;4.30;4.00;;;21.80;46.40;;;;;;5014606;28;20492;-76
2023/04/06 01:38:36;;;;;;;4.07;3.80;;;21.80;46.40;;;;;;5007621;28;20502;-76
2023/04/06 01:41:05;;;;;;;3.80;3.50;;;21.80;46.40;;;;;;5014111;28;20487;-76
2023/04/06 01:43:45;;;;;;;4.10;3.87;;;21.80;46.40;;;;;;5013962;28;20466;-76
2023/04/06 01:46:14;;;;;;;4.13;3.73;;;21.80;46.40;;;;;;5033474;28;20445;-78
2023/04/06 01:48:45;;;;;;;3.70;3.50;;;21.80;46.40;;;;;;5009247;28;20461;-76
2023/04/06 01:51:26;;;;;;;3.93;3.63;;;21.80;46.40;;;;;;5015066;28;20512;-76
2023/04/06 01:54:02;;;;;;;3.77;3.47;;;21.80;46.40;;;;;;5009236;28;20492;-76
2023/04/06 01:56:47;;;;;;;4.30;4.00;;;21.80;46.40;;;;;;5004161;28;20469;-79
2023/04/06 01:59:30;;;;;;;4.40;4.00;;;21.80;46.40;;;;;;4997101;28;20966;-76
2023/04/06 02:02:01;;;;;;;4.27;3.97;;;21.80;46.40;;;;;;4995877;28;20455;-76
2023/04/06 02:04:31;;;;;;;3.20;3.00;;;21.80;46.40;;;;;;5002836;28;20463;-76
2023/04/06 02:07:09;;;;;;;4.00;3.70;;;21.80;46.40;;;;;;5014610;28;20507;-76
2023/04/06 02:09:39;;;;;;;4.70;4.30;;;21.80;46.40;;;;;;5003439;28;20832;-76
2023/04/06 02:12:12;;;;;;;3.63;3.33;;;21.70;46.40;;;;;;4995659;28;20455;-82
2023/04/06 02:14:41;;;;;;;4.33;4.03;;;21.70;46.40;;;;;;5011706;28;20433;-76
2023/04/06 02:17:10;;;;;;;4.00;3.70;;;21.70;46.40;;;;;;5013184;28;20456;-76
2023/04/06 02:19:38;;;;;;;4.83;4.23;;;21.70;46.40;;;;;;4995038;28;20482;-76
2023/04/06 02:22:06;;;;;;;3.60;3.40;;;21.70;46.30;;;;;;4995136;28;20493;-76
2023/04/06 02:24:35;;;;;;;4.60;4.27;;;21.70;46.30;;;;;;5012840;28;20526;-76
2023/04/06 02:27:05;;;;;;;3.90;3.60;;;21.70;46.30;;;;;;4995074;28;20457;-76
2023/04/06 02:29:34;;;;;;;4.40;4.00;;;21.70;46.30;;;;;;5016828;28;20538;-79
2023/04/06 02:32:02;;;;;;;3.90;3.60;;;21.70;46.30;;;;;;5015029;28;20467;-76
2023/04/06 02:34:32;;;;;;;4.07;3.77;;;21.70;46.30;;;;;;5013354;28;20495;-76
2023/04/06 02:37:01;;;;;;;3.97;3.67;;;21.70;46.30;;;;;;5032364;28;20917;-76
2023/04/06 02:39:30;;;;;;;3.70;3.37;;;21.70;46.40;;;;;;5014158;28;20519;-78
2023/04/06 02:41:59;;;;;;;4.60;4.20;;;21.70;46.40;;;;;;5014198;28;20483;-77
2023/04/06 02:44:30;;;;;;;3.50;3.30;;;21.70;46.40;;;;;;5010530;28;20459;-76
2023/04/06 02:46:58;;;;;;;4.13;3.83;;;21.70;46.40;;;;;;5032005;28;20444;-76
2023/04/06 02:49:27;;;;;;;4.47;4.07;;;21.70;46.40;;;;;;5029920;28;20445;-76
2023/04/06 02:51:57;;;;;;;3.90;3.60;;;21.70;46.50;;;;;;5011075;28;20492;-76
2023/04/06 02:54:30;;;;;;;5.20;4.10;;;21.70;46.50;;;;;;5010084;28;21013;-76
2023/04/06 02:56:59;;;;;;;4.10;3.80;;;21.70;46.40;;;;;;5010878;28;20513;-76
2023/04/06 02:59:39;;;;;;;3.97;3.77;;;21.70;46.50;;;;;;5011507;28;20498;-77
2023/04/06 03:02:14;;;;;;;3.90;3.60;;;21.70;46.50;;;;;;5012462;28;20478;-78
2023/04/06 03:04:43;;;;;;;3.80;3.57;;;21.60;46.50;;;;;;5009732;28;20897;-77
2023/04/06 03:07:21;;;;;;;4.83;4.23;;;21.60;46.50;;;;;;5011707;28;20435;-77
2023/04/06 03:09:50;;;;;;;4.10;3.80;;;21.60;46.50;;;;;;5012197;28;20449;-78
2023/04/06 03:12:18;;;;;;;3.37;3.17;;;21.60;46.50;;;;;;5010499;28;20457;-80
2023/04/06 03:15:14;;;;;;;4.33;3.97;;;21.60;46.50;;;;;;5009784;28;20458;-76
2023/04/06 03:17:48;;;;;;;3.70;3.40;;;21.60;46.50;;;;;;5010683;28;20463;-78
2023/04/06 03:20:42;;;;;;;3.67;3.37;;;21.60;46.50;;;;;;5000907;28;20507;-78
2023/04/06 03:23:11;;;;;;;3.47;3.20;;;21.60;46.50;;;;;;5011288;28;20992;-77
2023/04/06 03:25:42;;;;;;;4.20;3.80;;;21.60;46.50;;;;;;5010781;28;20462;-76
2023/04/06 03:28:15;;;;;;;3.87;3.57;;;21.60;46.50;;;;;;5009774;28;20473;-76
2023/04/06 03:30:55;;;;;;;3.57;3.37;;;21.60;46.50;;;;;;5010516;28;20467;-77
2023/04/06 03:33:41;;;;;;;3.93;3.67;;;21.60;46.50;;;;;;5009683;28;20481;-79
2023/04/06 03:36:13;;;;;;;4.20;3.70;;;21.60;46.50;;;;;;5007072;28;20541;-76
2023/04/06 03:38:43;;;;;;;3.60;3.40;;;21.60;46.50;;;;;;4990358;28;21390;-76
2023/04/06 03:41:14;;;;;;;3.90;3.60;;;21.60;46.50;;;;;;4990773;28;20489;-78
2023/04/06 03:43:49;;;;;;;3.80;3.50;;;21.60;46.50;;;;;;4994479;28;20819;-80
2023/04/06 03:46:20;;;;;;;3.93;3.63;;;21.60;46.50;;;;;;5009278;28;20451;-76
2023/04/06 03:48:51;;;;;;;3.73;3.53;;;21.60;46.40;;;;;;5010216;28;20557;-78
2023/04/06 03:51:22;;;;;;;3.50;3.30;;;21.60;46.40;;;;;;5014492;28;20536;-80
2023/04/06 03:53:50;;;;;;;4.00;3.70;;;21.60;46.40;;;;;;5026152;28;20897;-85
2023/04/06 03:56:18;;;;;;;3.90;3.60;;;21.60;46.40;;;;;;5031492;28;20532;-77
2023/04/06 03:58:50;;;;;;;4.00;3.70;;;21.50;46.40;;;;;;5012362;28;20800;-77
2023/04/06 04:01:22;;;;;;;3.93;3.63;;;21.60;46.40;;;;;;5013467;28;21012;-79
2023/04/06 04:03:51;;;;;;;3.73;3.43;;;21.50;46.40;;;;;;5012204;28;20545;-76
2023/04/06 04:06:19;;;;;;;4.00;3.70;;;21.50;46.40;;;;;;5012796;28;20948;-77
2023/04/06 04:08:48;;;;;;;3.70;3.50;;;21.50;46.40;;;;;;5017400;28;20460;-76
2023/04/06 04:11:16;;;;;;;3.83;3.53;;;21.50;46.40;;;;;;5017198;28;20535;-76
2023/04/06 04:13:48;;;;;;;3.50;3.20;;;21.50;46.40;;;;;;5016098;28;20537;-77
2023/04/06 04:16:16;;;;;;;4.10;3.83;;;21.50;46.40;;;;;;5035170;28;20809;-76
2023/04/06 04:18:48;;;;;;;3.60;3.37;;;21.50;46.40;;;;;;5033576;28;20859;-76
2023/04/06 04:21:16;;;;;;;3.57;3.27;;;21.50;46.40;;;;;;5034929;28;20611;-76
2023/04/06 04:23:44;;;;;;;4.20;3.90;;;21.50;46.40;;;;;;5034894;28;20458;-77
2023/04/06 04:26:12;;;;;;;3.50;3.30;;;21.50;46.40;;;;;;5034567;28;20438;-77
2023/04/06 04:28:41;;;;;;;4.03;3.73;;;21.50;46.40;;;;;;5014878;28;21388;-76
2023/04/06 04:31:10;;;;;;;3.53;3.33;;;21.50;46.40;;;;;;5017396;28;21030;-77
2023/04/06 04:33:39;;;;;;;3.40;3.10;;;21.50;46.40;;;;;;5014759;28;20870;-77
2023/04/06 04:36:15;;;;;;;4.70;3.97;;;21.50;46.40;;;;;;5016618;28;20457;-81
2023/04/06 04:38:44;;;;;;;3.67;3.37;;;21.50;46.40;;;;;;5016863;28;20472;-76
2023/04/06 04:41:14;;;;;;;3.50;3.30;;;21.50;46.40;;;;;;5016330;28;20497;-76
2023/04/06 04:43:44;;;;;;;3.93;3.63;;;21.50;46.40;;;;;;5011973;28;20470;-77
2023/04/06 04:46:15;;;;;;;3.80;3.50;;;21.50;46.40;;;;;;5013441;28;20809;-76
2023/04/06 04:48:44;;;;;;;3.37;3.17;;;21.50;46.40;;;;;;5016304;28;20560;-78
2023/04/06 04:51:16;;;;;;;4.50;4.20;;;21.50;46.40;;;;;;5016414;28;20490;-76
2023/04/06 04:54:07;;;;;;;3.67;3.37;;;21.50;46.40;;;;;;5026968;28;20990;-77
2023/04/06 04:56:36;;;;;;;5.17;3.77;;;21.50;46.40;;;;;;5016385;28;20953;-76
2023/04/06 04:59:22;;;;;;;4.13;3.80;;;21.50;46.40;;;;;;5015302;28;20462;-76
2023/04/06 05:02:02;;;;;;;4.40;4.00;;;21.40;46.40;;;;;;5013301;28;20564;-77
2023/04/06 05:04:41;;;;;;;4.47;4.17;;;21.40;46.40;;;;;;5007498;28;21031;-76
2023/04/06 05:07:15;;;;;;;4.17;3.77;;;21.40;46.40;;;;;;4996723;28;20560;-76
2023/04/06 05:09:44;;;;;;;3.60;3.40;;;21.40;46.40;;;;;;5013635;28;21000;-80
2023/04/06 05:12:13;;;;;;;4.20;3.83;;;21.40;46.40;;;;;;5015968;28;20472;-76
2023/04/06 05:14:51;;;;;;;3.57;3.27;;;21.40;46.40;;;;;;5014885;28;20538;-79
2023/04/06 05:17:21;;;;;;;3.77;3.57;;;21.40;46.40;;;;;;5001172;28;20455;-75
2023/04/06 05:19:50;;;;;;;3.43;3.17;;;21.40;46.40;;;;;;4996063;28;20450;-76
2023/04/06 05:22:25;;;;;;;5.03;4.00;;;21.40;46.40;;;;;;4996160;28;20482;-76
2023/04/06 05:25:11;;;;;;;3.80;3.50;;;21.40;46.40;;;;;;5007818;28;20452;-75
2023/04/06 05:27:41;;;;;;;3.73;3.43;;;21.40;46.40;;;;;;5012291;28;20852;-77
2023/04/06 05:30:25;;;;;;;3.87;3.60;;;21.40;46.40;;;;;;5014946;28;20538;-77
2023/04/06 05:32:55;;;;;;;3.30;3.10;;;21.40;46.30;;;;;;5015555;28;20457;-75
2023/04/06 05:35:27;;;;;;;3.53;3.33;;;21.40;46.30;;;;;;5001090;28;20598;-78
2023/04/06 05:38:01;;;;;;;3.33;3.10;;;21.40;46.30;;;;;;4995800;28;20490;-76
2023/04/06 05:40:30;;;;;;;3.50;3.20;;;21.40;46.30;;;;;;5013902;28;20894;-75
2023/04/06 05:42:58;;;;;;;3.70;3.40;;;21.40;46.30;;;;;;4995683;28;20482;-76
2023/04/06 05:45:26;;;;;;;3.73;3.43;;;21.40;46.30;;;;;;5012504;28;20911;-78
2023/04/06 05:47:56;;;;;;;3.33;3.13;;;21.40;46.30;;;;;;4997019;28;20457;-76
2023/04/06 05:50:30;;;;;;;3.57;3.27;;;21.40;46.30;;;;;;5015211;28;20549;-77
2023/04/06 05:52:59;;;;;;;3.93;3.63;;;21.40;46.30;;;;;;5014655;28;20516;-76
2023/04/06 05:55:34;;;;;;;3.40;3.20;;;21.40;46.30;;;;;;5015567;28;20463;-76
2023/04/06 05:58:13;;;;;;;3.40;3.20;;;21.50;46.30;;;;;;5014494;28;20466;-76
2023/04/06 06:00:45;;;;;;;3.27;3.07;;;21.40;46.30;;;;;;5015347;28;21014;-77
2023/04/06 06:03:16;;;;;;;3.80;3.60;;;21.40;46.30;;;;;;5014319;28;20481;-76
2023/04/06 06:05:50;;;;;;;3.93;3.63;;;21.50;46.30;;;;;;5015551;28;20460;-76
2023/04/06 06:08:25;;;;;;;4.80;4.40;;;21.50;46.30;;;;;;5013921;28;20951;-76
2023/04/06 06:10:55;;;;;;;3.47;3.27;;;21.50;46.30;;;;;;5006570;28;20534;-76
2023/04/06 06:13:24;;;;;;;3.80;3.50;;;21.50;46.30;;;;;;4994647;28;20452;-76
2023/04/06 06:15:53;;;;;;;3.60;3.30;;;21.50;46.30;;;;;;4995596;28;20462;-77
2023/04/06 06:18:22;;;;;;;3.77;3.47;;;21.50;46.30;;;;;;4995018;28;20463;-79
2023/04/06 06:20:53;;;;;;;3.40;3.10;;;21.50;46.30;;;;;;4995624;28;20824;-76
2023/04/06 06:23:22;;;;;;;4.37;4.07;;;21.50;46.30;;;;;;4997332;28;20590;-81
2023/04/06 06:25:52;;;;;;;3.53;3.20;;;21.50;46.30;;;;;;5013942;28;20503;-76
2023/04/06 06:28:24;;;;;;;3.90;3.60;;;21.50;46.20;;;;;;5005281;28;20465;-76
2023/04/06 06:30:53;;;;;;;4.30;4.00;;;21.50;46.30;;;;;;5019849;28;20476;-77
2023/04/06 06:33:25;;;;;;;3.70;3.40;;;21.50;46.20;;;;;;5012140;28;20463;-77
2023/04/06 06:35:55;;;;;;;3.87;3.57;;;21.50;46.20;;;;;;5010131;28;20472;-76
2023/04/06 06:38:23;;;;;;;4.10;3.80;;;21.50;46.20;;;;;;5028417;28;20450;-77
2023/04/06 06:40:53;;;;;;;3.93;3.63;;;21.50;46.20;;;;;;5014403;28;21424;-80
2023/04/06 06:43:24;;;;;;;3.83;3.53;;;21.50;46.20;;;;;;5012681;28;21025;-78
2023/04/06 06:45:58;;;;;;;3.53;3.33;;;21.50;46.20;;;;;;5013668;28;20468;-76
2023/04/06 06:48:27;;;;;;;4.03;3.70;;;21.50;46.20;;;;;;5013827;28;20472;-78
2023/04/06 06:50:55;;;;;;;3.87;3.67;;;21.60;46.20;;;;;;5031657;28;20461;-76
2023/04/06 06:53:25;;;;;;;3.30;3.10;;;21.60;46.20;;;;;;5030816;28;20445;-76
2023/04/06 06:55:53;;;;;;;4.17;3.87;;;21.60;46.20;;;;;;5029844;28;20464;-77
2023/04/06 06:58:21;;;;;;;4.27;3.47;;;21.60;46.20;;;;;;5010557;28;20868;-77
2023/04/06 07:00:51;;;;;;;3.67;3.37;;;21.60;46.20;;;;;;5006601;28;21009;-78
2023/04/06 07:03:19;;;;;;;3.63;3.30;;;21.60;46.10;;;;;;5022668;28;20477;-77
2023/04/06 07:05:52;;;;;;;4.03;3.73;;;21.60;46.10;;;;;;5029279;28;20964;-77
2023/04/06 07:08:23;;;;;;;4.33;3.93;;;21.60;46.10;;;;;;5011382;28;20465;-80
2023/04/06 07:10:53;;;;;;;3.53;3.33;;;21.60;46.10;;;;;;5030432;28;20480;-76
2023/04/06 07:13:22;;;;;;;4.20;3.90;;;21.60;46.10;;;;;;5029345;28;20446;-76
2023/04/06 07:15:55;;;;;;;4.00;3.60;;;21.60;46.10;;;;;;5026678;28;20478;-76
2023/04/06 07:18:24;;;;;;;4.10;3.80;;;21.60;46.10;;;;;;5032251;28;20522;-76
2023/04/06 07:20:52;;;;;;;3.50;3.20;;;21.70;46.10;;;;;;5013848;28;20449;-79
2023/04/06 07:23:20;;;;;;;3.57;3.30;;;21.70;46.10;;;;;;5013038;28;20495;-76
2023/04/06 07:25:50;;;;;;;3.83;3.50;;;21.70;46.00;;;;;;5031904;28;20450;-76
2023/04/06 07:28:19;;;;;;;4.20;3.27;;;21.70;46.00;;;;;;5012448;28;20878;-76
2023/04/06 07:30:52;;;;;;;3.97;3.60;;;21.70;46.00;;;;;;5031353;28;20446;-77
2023/04/06 07:33:23;;;;;;;3.83;3.53;;;21.70;46.10;;;;;;5013715;28;20995;-76
2023/04/06 07:35:52;;;;;;;3.97;3.60;;;21.70;46.00;;;;;;5030537;28;20557;-76
2023/04/06 07:38:20;;;;;;;3.10;2.90;;;21.70;45.90;;;;;;5028617;28;20528;-78
2023/04/06 07:40:49;;;;;;;5.20;3.80;;;21.70;46.00;;;;;;5012978;28;20478;-76
2023/04/06 07:43:17;;;;;;;3.40;3.10;;;21.70;46.00;;;;;;5030150;28;20823;-76
2023/04/06 07:45:46;;;;;;;3.80;3.60;;;21.70;46.00;;;;;;5013456;28;20469;-76
2023/04/06 07:48:17;;;;;;;3.90;3.60;;;21.70;45.90;;;;;;5013488;28;20502;-80
2023/04/06 07:50:49;;;;;;;3.67;3.40;;;21.70;45.90;;;;;;5031033;28;20442;-76
2023/04/06 07:53:17;;;;;;;3.43;3.20;;;21.70;45.90;;;;;;5013100;28;20487;-76
2023/04/06 07:55:46;;;;;;;3.93;3.63;;;21.70;45.90;;;;;;5013308;28;20996;-76
2023/04/06 07:58:15;;;;;;;3.43;3.23;;;21.70;45.90;;;;;;5021823;28;20532;-78
2023/04/06 08:00:43;;;;;;;3.70;3.47;;;21.70;45.90;;;;;;5011420;28;20906;-80
2023/04/06 08:03:11;;;;;;;4.07;3.80;;;21.70;45.90;;;;;;5010562;28;20479;-75
2023/04/06 08:05:40;;;;;;;3.93;3.63;;;21.70;45.90;;;;;;5011323;28;20799;-76
2023/04/06 08:08:10;;;;;;;4.07;3.67;;;21.70;45.90;;;;;;5011646;28;20911;-76
2023/04/06 08:10:38;;;;;;;3.70;3.30;;;21.70;45.90;;;;;;5011259;28;20455;-76
2023/04/06 08:13:08;;;;;;;4.17;3.77;;;21.70;45.90;;;;;;5011326;28;20530;-82
2023/04/06 08:15:36;;;;;;;4.30;4.00;;;21.70;45.90;;;;;;5011044;28;20518;-77
2023/04/06 08:18:05;;;;;;;3.33;3.13;;;21.70;45.90;;;;;;5012732;28;20434;-79
2023/04/06 08:20:33;;;;;;;3.70;3.40;;;21.80;45.90;;;;;;5031002;28;20866;-80
2023/04/06 08:23:02;;;;;;;4.10;3.80;;;21.80;45.90;;;;;;5030522;28;20510;-76
2023/04/06 08:25:32;;;;;;;3.33;3.13;;;21.80;45.90;;;;;;5030430;28;20854;-76
2023/04/06 08:28:00;;;;;;;3.10;2.90;;;21.80;45.90;;;;;;5029529;28;20502;-77
2023/04/06 08:30:28;;;;;;;3.90;3.60;;;21.80;45.90;;;;;;5029995;28;20430;-79
2023/04/06 08:32:57;;;;;;;4.10;3.80;;;21.80;45.80;;;;;;5029839;28;20933;-77
2023/04/06 08:35:28;;;;;;;4.67;3.40;;;21.80;45.80;;;;;;5030781;28;20452;-77
2023/04/06 08:37:57;;;;;;;3.90;3.60;;;21.80;45.80;;;;;;5027293;28;20442;-75
2023/04/06 08:40:26;;;;;;;4.40;4.00;;;21.80;45.80;;;;;;5030537;28;20507;-76
2023/04/06 08:43:01;;;;;;;3.63;3.43;;;21.80;45.80;;;;;;5017262;28;20455;-79
2023/04/06 08:45:30;;;;;;;4.10;3.80;;;21.80;45.80;;;;;;5010014;28;20537;-75
2023/04/06 08:48:01;;;;;;;3.97;3.67;;;21.80;45.80;;;;;;5010545;28;20519;-80
2023/04/06 08:50:31;;;;;;;3.47;3.27;;;21.80;45.80;;;;;;5023922;28;20473;-76
2023/04/06 08:53:00;;;;;;;3.90;3.60;;;21.80;45.80;;;;;;5033865;28;20485;-75
2023/04/06 08:55:28;;;;;;;5.00;4.60;;;21.80;45.80;;;;;;5034448;28;20438;-76
2023/04/06 08:57:59;;;;;;;3.67;3.37;;;21.80;45.70;;;;;;5033045;28;20517;-76
2023/04/06 09:00:29;;;;;;;4.50;4.10;;;21.80;45.70;;;;;;5024867;28;20535;-75
2023/04/06 09:02:59;;;;;;;3.77;3.57;;;21.80;45.70;;;;;;5014835;28;20435;-76
2023/04/06 09:05:28;;;;;;;3.90;3.60;;;21.90;45.70;;;;;;5033494;28;20467;-76
2023/04/06 09:07:56;;;;;;;4.07;3.77;;;21.90;45.70;;;;;;5033954;28;20529;-77
2023/04/06 09:10:25;;;;;;;3.50;3.30;;;21.90;45.70;;;;;;5034017;28;20476;-78
2023/04/06 09:13:05;;;;;;;3.87;3.57;;;21.90;45.70;;;;;;5033590;28;20529;-80
2023/04/06 09:15:34;;;;;;;4.70;4.40;;;21.90;45.70;;;;;;5033856;28;20557;-79
2023/04/06 09:18:02;;;;;;;4.30;3.90;;;21.90;45.70;;;;;;5016455;28;20872;-76
2023/04/06 09:20:30;;;;;;;3.90;3.60;;;21.90;45.60;;;;;;5033539;28;20468;-76
2023/04/06 09:22:59;;;;;;;3.70;3.50;;;21.90;45.60;;;;;;5028869;28;21024;-76
2023/04/06 09:25:27;;;;;;;4.33;3.90;;;21.90;45.60;;;;;;5021445;28;20552;-76
2023/04/06 09:28:03;;;;;;;3.50;3.20;;;21.90;45.60;;;;;;5025916;28;20447;-76
2023/04/06 09:30:34;;;;;;;4.50;4.10;;;21.90;45.60;;;;;;5032711;28;20454;-76
2023/04/06 09:33:02;;;;;;;3.30;3.10;;;21.90;45.60;;;;;;5033103;28;20536;-77
2023/04/06 09:35:32;;;;;;;3.93;3.63;;;22.00;45.60;;;;;;5033519;28;20426;-76
2023/04/06 09:38:12;;;;;;;3.77;3.57;;;22.00;45.60;;;;;;5028837;28;20479;-76
2023/04/06 09:40:49;;;;;;;4.13;3.83;;;22.00;45.60;;;;;;5019647;28;20450;-82
2023/04/06 09:43:28;;;;;;;3.57;3.33;;;22.00;45.60;;;;;;5031607;28;20587;-76
2023/04/06 09:45:59;;;;;;;4.30;4.00;;;22.00;45.60;;;;;;5026294;28;20445;-77
2023/04/06 09:48:29;;;;;;;3.80;3.60;;;22.00;45.60;;;;;;5013588;28;20442;-76
2023/04/06 09:51:04;;;;;;;4.27;4.00;;;22.00;45.60;;;;;;5013037;28;20467;-76
2023/04/06 09:53:36;;;;;;;3.50;3.20;;;22.00;45.60;;;;;;5021140;28;20466;-76
2023/04/06 09:56:06;;;;;;;3.70;3.40;;;22.00;45.60;;;;;;5015731;28;20458;-78
2023/04/06 09:58:38;;;;;;;3.53;3.23;;;22.00;45.60;;;;;;5032060;28;20463;-76
2023/04/06 10:01:13;;;;;;;3.53;3.23;;;22.00;45.60;;;;;;5032742;28;20443;-76
2023/04/06 10:03:50;;;;;;;3.77;3.47;;;22.00;45.60;;;;;;5032367;28;20427;-76
2023/04/06 10:06:25;;;;;;;3.33;3.13;;;22.00;45.60;;;;;;5032733;28;20432;-76
2023/04/06 10:08:56;;;;;;;3.63;3.37;;;22.00;45.60;;;;;;5032169;28;20482;-76
2023/04/06 10:11:25;;;;;;;3.67;3.47;;;22.00;45.60;;;;;;5032051;28;20545;-76
2023/04/06 10:13:53;;;;;;;4.10;3.70;;;22.00;45.60;;;;;;5031697;28;20488;-76
2023/04/06 10:16:24;;;;;;;3.73;3.43;;;22.00;45.60;;;;;;5032475;28;20447;-76
2023/04/06 10:18:57;;;;;;;3.23;3.03;;;22.10;45.60;;;;;;5032855;28;20498;-76
2023/04/06 10:21:28;;;;;;;3.50;3.30;;;22.00;45.60;;;;;;5032664;28;20421;-77
2023/04/06 10:24:00;;;;;;;3.10;3.00;;;22.10;45.50;;;;;;5032228;28;20439;-76
2023/04/06 10:26:28;;;;;;;4.00;3.67;;;22.10;45.60;;;;;;5031909;28;20813;-76
2023/04/06 10:29:04;;;;;;;3.97;3.57;;;22.10;45.50;;;;;;5031303;28;20486;-77
2023/04/06 10:31:40;;;;;;;3.93;3.57;;;22.10;45.50;;;;;;5029849;28;20452;-76
2023/04/06 10:34:09;;;;;;;3.50;3.30;;;22.10;45.50;;;;;;5012420;28;20439;-76
2023/04/06 10:36:38;;;;;;;3.30;3.00;;;22.10;45.50;;;;;;5012522;28;20481;-76
2023/04/06 10:39:06;;;;;;;3.40;3.20;;;22.10;45.50;;;;;;5029370;28;20954;-79
2023/04/06 10:41:36;;;;;;;3.00;2.80;;;22.20;45.50;;;;;;5031138;28;20485;-76
2023/04/06 10:45:00;;;;;;;3.30;3.00;;;22.20;45.50;;;;;;5030743;28;20451;-78
2023/04/06 10:47:40;;;;;;;3.87;3.13;;;22.20;45.50;;;;;;5032381;28;20534;-75
2023/04/06 10:50:11;;;;;;;3.70;3.40;;;22.20;45.50;;;;;;5014438;28;20810;-76
2023/04/06 10:52:40;;;;;;;3.33;3.13;;;22.20;45.50;;;;;;5001768;28;20862;-76
2023/04/06 10:55:10;;;;;;;3.60;2.90;;;22.20;45.50;;;;;;5031522;28;20485;-76
2023/04/06 10:57:38;;;;;;;3.30;3.10;;;22.30;45.40;;;;;;5032341;28;20509;-76
2023/04/06 11:00:09;;;;;;;2.77;2.57;;;22.30;45.30;;;;;;5028921;28;20456;-77
2023/04/06 11:02:41;;;;;;;3.10;2.90;;;22.40;45.30;;;;;;5031656;28;20454;-76
2023/04/06 11:05:13;;;;;;;3.40;3.10;;;22.40;45.10;;;;;;5031670;28;20473;-77
2023/04/06 11:07:49;;;;;;;3.40;3.20;;;22.50;45.00;;;;;;5031705;28;20517;-76
2023/04/06 11:10:23;;;;;;;3.20;3.00;;;22.60;44.90;;;;;;5030007;28;20433;-78
2023/04/06 11:12:56;;;;;;;3.53;3.33;;;22.70;44.80;;;;;;5015472;28;20456;-77
2023/04/06 11:15:27;;;;;;;3.33;3.07;;;22.90;44.50;;;;;;5030544;28;20441;-78
2023/04/06 11:17:58;;;;;;;3.27;3.13;;;23.10;44.20;;;;;;5031475;28;20448;-76
2023/04/06 11:20:26;;;;;;;2.77;2.67;;;23.30;43.90;;;;;;5032090;28;20433;-76
2023/04/06 11:22:54;;;;;;;3.03;2.83;;;23.50;43.50;;;;;;5031173;28;20530;-76
2023/04/06 11:25:23;;;;;;;2.97;2.77;;;23.70;43.30;;;;;;5027564;28;20517;-77
2023/04/06 11:27:52;;;;;;;2.70;2.50;;;23.90;43.00;;;;;;5031414;28;20481;-76
2023/04/06 11:30:21;;;;;;;3.00;2.70;;;24.10;42.90;;;;;;5030306;28;20490;-76
2023/04/06 11:32:49;;;;;;;3.00;2.80;;;24.20;42.70;;;;;;5031798;28;20442;-78
2023/04/06 11:35:23;;;;;;;3.00;2.80;;;24.30;42.60;;;;;;5030838;28;20446;-77
2023/04/06 11:37:52;;;;;;;2.43;2.30;;;24.40;42.40;;;;;;5030981;28;20428;-77
2023/04/06 11:40:24;;;;;;;3.60;3.30;;;24.50;42.20;;;;;;5030172;28;20428;-81
2023/04/06 11:42:56;;;;;;;3.97;3.50;;;24.60;42.10;;;;;;5025139;28;20513;-78
2023/04/06 11:45:25;;;;;;;2.80;2.60;;;24.60;42.00;;;;;;5012679;28;20476;-76
2023/04/06 11:47:58;;;;;;;3.20;3.00;;;24.70;41.90;;;;;;5013637;28;20458;-77
2023/04/06 11:50:33;;;;;;;2.47;2.37;;;24.70;41.90;;;;;;5030947;28;20503;-82
2023/04/06 11:53:02;;;;;;;2.80;2.60;;;24.70;41.80;;;;;;5030483;28;20477;-78
2023/04/06 11:55:38;;;;;;;2.67;2.47;;;24.80;41.80;;;;;;5031077;28;20456;-76
2023/04/06 11:58:07;;;;;;;2.80;2.60;;;24.80;41.80;;;;;;5030613;28;20442;-80
2023/04/06 12:00:36;;;;;;;3.10;2.90;;;24.70;41.80;;;;;;5030652;28;20445;-79
2023/04/06 12:03:05;;;;;;;3.03;2.83;;;24.70;41.90;;;;;;5031290;28;20441;-80
2023/04/06 12:05:35;;;;;;;2.80;2.60;;;24.80;41.80;;;;;;5030914;28;20503;-81
2023/04/06 12:08:04;;;;;;;2.47;2.27;;;24.80;41.80;;;;;;5030774;28;20992;-76
2023/04/06 12:10:32;;;;;;;2.70;2.50;;;24.80;41.90;;;;;;5030236;28;20502;-76
2023/04/06 12:13:00;;;;;;;3.13;2.93;;;24.80;41.90;;;;;;5030827;28;20433;-77
2023/04/06 12:15:29;;;;;;;3.00;2.80;;;24.90;41.80;;;;;;5030019;28;20515;-77
2023/04/06 12:17:57;;;;;;;2.77;2.50;;;24.90;41.70;;;;;;5030759;28;20946;-76
2023/04/06 12:20:25;;;;;;;4.00;3.20;;;25.00;41.70;;;;;;5026444;28;20595;-79
2023/04/06 12:22:56;;;;;;;2.53;2.43;;;25.00;41.60;;;;;;5030445;28;20832;-77
2023/04/06 12:25:24;;;;;;;2.73;2.60;;;25.00;41.60;;;;;;5030968;28;20473;-77
2023/04/06 12:27:53;;;;;;;2.73;2.60;;;25.00;41.60;;;;;;5033963;28;20437;-77
2023/04/06 12:30:21;;;;;;;3.13;2.90;;;25.00;41.60;;;;;;5034057;28;20460;-77
2023/04/06 12:32:50;;;;;;;2.30;2.10;;;25.00;41.60;;;;;;5034060;28;20445;-76
2023/04/06 12:35:20;;;;;;;3.03;2.80;;;25.00;41.60;;;;;;5034468;28;20441;-77
2023/04/06 12:37:49;;;;;;;2.97;2.77;;;25.10;41.60;;;;;;5034742;28;20429;-79
2023/04/06 12:40:19;;;;;;;2.90;2.70;;;25.10;41.50;;;;;;5016466;28;20866;-76
2023/04/06 12:42:51;;;;;;;3.00;2.80;;;25.10;41.50;;;;;;5022100;28;20492;-76
2023/04/06 12:45:19;;;;;;;2.40;2.27;;;25.10;41.50;;;;;;5022923;28;20820;-77
2023/04/06 12:47:47;;;;;;;2.70;2.50;;;25.10;41.50;;;;;;5033188;28;20538;-77
2023/04/06 12:50:16;;;;;;;2.50;2.40;;;25.10;41.50;;;;;;5033997;28;20507;-78
2023/04/06 12:52:44;;;;;;;2.60;2.50;;;25.10;41.50;;;;;;5034529;28;20576;-78
2023/04/06 12:55:12;;;;;;;3.03;2.83;;;25.10;41.50;;;;;;5033746;28;20452;-77
2023/04/06 12:57:42;;;;;;;2.30;2.20;;;25.10;41.50;;;;;;5033940;28;20999;-76
2023/04/06 13:00:11;;;;;;;2.00;1.90;;;25.10;41.50;;;;;;5033303;28;20470;-78
2023/04/06 13:02:40;;;;;;;2.60;2.40;;;25.10;41.50;;;;;;5033854;28;20518;-76
2023/04/06 13:05:10;;;;;;;2.57;2.37;;;25.00;41.60;;;;;;5033761;28;20451;-76
2023/04/06 13:07:38;;;;;;;2.43;2.33;;;25.00;41.50;;;;;;5018367;28;20471;-78